Saint-Eustache, Canada
Current Conditions -  °F | °C
As of 7:12 AM on Monday 24 Nov 2014 (Local Time) from CYMX Reporting Station
Light Rain Light Rain  
Wind Chill: 36°   Ceiling: 400
Heat Index: 43°   Visibility: 1.5mi
Dew Point: 43°   Wind: 14mph
Humidity: 100%   Direction: 90°E
Pressure: 29.53"   Gusts: 23mph
Location:  45.57°N, 73.9°W
Report Text: CYMX 241212Z 09012G20KT 1 1/2SM -RA BR OVC004 06/06 A2953 RMK FG4SF4 PRESFR SLP003
Loading
Personal Weather Stations






























Interactive Weather Map New forecast layout! Learn more

10-Day Weather Forecast

Advertisements
Track Severe Weather on mobile